sensor_id;sensor_type;location;lat;lon;timestamp;P1;durP1;ratioP1;P2;durP2;ratioP2
53927;SDS011;39837;47.630;18.822;2023-02-11T00:02:19;1.80;;;1.77;;
53927;SDS011;39837;47.630;18.822;2023-02-11T00:05:03;2.80;;;2.55;;
53927;SDS011;39837;47.630;18.822;2023-02-11T00:07:47;2.78;;;1.95;;
53927;SDS011;39837;47.630;18.822;2023-02-11T00:10:31;2.95;;;2.75;;
53927;SDS011;39837;47.630;18.822;2023-02-11T00:13:16;10.63;;;2.55;;
53927;SDS011;39837;47.630;18.822;2023-02-11T00:16:04;2.63;;;2.53;;
53927;SDS011;39837;47.630;18.822;2023-02-11T00:18:49;8.05;;;3.95;;
53927;SDS011;39837;47.630;18.822;2023-02-11T00:21:35;2.40;;;2.30;;
53927;SDS011;39837;47.630;18.822;2023-02-11T00:24:19;2.60;;;2.50;;
53927;SDS011;39837;47.630;18.822;2023-02-11T00:27:03;1.88;;;1.77;;
53927;SDS011;39837;47.630;18.822;2023-02-11T00:29:47;2.53;;;2.42;;
53927;SDS011;39837;47.630;18.822;2023-02-11T00:32:31;2.78;;;2.67;;
53927;SDS011;39837;47.630;18.822;2023-02-11T00:35:15;3.88;;;3.30;;
53927;SDS011;39837;47.630;18.822;2023-02-11T00:38:00;3.08;;;2.92;;
53927;SDS011;39837;47.630;18.822;2023-02-11T00:40:44;5.20;;;2.70;;
53927;SDS011;39837;47.630;18.822;2023-02-11T00:43:27;2.92;;;2.05;;
53927;SDS011;39837;47.630;18.822;2023-02-11T00:46:12;1.98;;;1.98;;
53927;SDS011;39837;47.630;18.822;2023-02-11T00:48:56;1.70;;;1.70;;
53927;SDS011;39837;47.630;18.822;2023-02-11T00:51:40;1.55;;;1.55;;
53927;SDS011;39837;47.630;18.822;2023-02-11T00:54:24;2.03;;;1.97;;
53927;SDS011;39837;47.630;18.822;2023-02-11T00:57:08;6.72;;;2.80;;
53927;SDS011;39837;47.630;18.822;2023-02-11T00:59:52;2.92;;;2.72;;
53927;SDS011;39837;47.630;18.822;2023-02-11T01:02:36;5.15;;;2.90;;
53927;SDS011;39837;47.630;18.822;2023-02-11T01:05:20;1.97;;;1.97;;
53927;SDS011;39837;47.630;18.822;2023-02-11T01:08:05;2.25;;;2.15;;
53927;SDS011;39837;47.630;18.822;2023-02-11T01:11:00;2.60;;;2.50;;
53927;SDS011;39837;47.630;18.822;2023-02-11T01:13:46;2.63;;;2.53;;
53927;SDS011;39837;47.630;18.822;2023-02-11T01:16:30;2.33;;;2.23;;
53927;SDS011;39837;47.630;18.822;2023-02-11T01:19:14;2.73;;;2.53;;
53927;SDS011;39837;47.630;18.822;2023-02-11T01:21:58;2.37;;;2.23;;
53927;SDS011;39837;47.630;18.822;2023-02-11T01:24:42;3.00;;;2.78;;
53927;SDS011;39837;47.630;18.822;2023-02-11T01:27:26;1.63;;;1.63;;
53927;SDS011;39837;47.630;18.822;2023-02-11T01:30:11;3.60;;;3.40;;
53927;SDS011;39837;47.630;18.822;2023-02-11T01:32:56;2.53;;;2.42;;
53927;SDS011;39837;47.630;18.822;2023-02-11T01:35:40;1.75;;;1.75;;
53927;SDS011;39837;47.630;18.822;2023-02-11T01:38:24;3.60;;;2.63;;
53927;SDS011;39837;47.630;18.822;2023-02-11T01:41:11;2.30;;;2.20;;
53927;SDS011;39837;47.630;18.822;2023-02-11T01:43:57;2.30;;;2.20;;
53927;SDS011;39837;47.630;18.822;2023-02-11T01:46:40;1.87;;;1.87;;
53927;SDS011;39837;47.630;18.822;2023-02-11T01:49:29;2.07;;;2.03;;
53927;SDS011;39837;47.630;18.822;2023-02-11T01:54:59;17.43;;;2.90;;
53927;SDS011;39837;47.630;18.822;2023-02-11T01:58:05;3.03;;;2.90;;
53927;SDS011;39837;47.630;18.822;2023-02-11T02:00:49;2.47;;;2.33;;
53927;SDS011;39837;47.630;18.822;2023-02-11T02:03:34;11.13;;;2.63;;
53927;SDS011;39837;47.630;18.822;2023-02-11T02:06:29;2.83;;;2.63;;
53927;SDS011;39837;47.630;18.822;2023-02-11T02:09:21;2.13;;;2.07;;
53927;SDS011;39837;47.630;18.822;2023-02-11T02:12:06;5.28;;;3.25;;
53927;SDS011;39837;47.630;18.822;2023-02-11T02:14:51;1.77;;;1.73;;
53927;SDS011;39837;47.630;18.822;2023-02-11T02:17:37;2.92;;;2.67;;
53927;SDS011;39837;47.630;18.822;2023-02-11T02:35:46;2.37;;;2.33;;
53927;SDS011;39837;47.630;18.822;2023-02-11T02:39:07;1.87;;;1.77;;
53927;SDS011;39837;47.630;18.822;2023-02-11T02:41:54;2.10;;;1.85;;
53927;SDS011;39837;47.630;18.822;2023-02-11T02:44:39;1.95;;;1.83;;
53927;SDS011;39837;47.630;18.822;2023-02-11T02:47:23;2.17;;;2.08;;
53927;SDS011;39837;47.630;18.822;2023-02-11T02:50:07;3.45;;;3.17;;
53927;SDS011;39837;47.630;18.822;2023-02-11T02:56:09;2.10;;;2.00;;
53927;SDS011;39837;47.630;18.822;2023-02-11T03:02:14;1.57;;;1.57;;
53927;SDS011;39837;47.630;18.822;2023-02-11T03:05:18;2.97;;;2.70;;
53927;SDS011;39837;47.630;18.822;2023-02-11T03:08:15;2.63;;;2.53;;
53927;SDS011;39837;47.630;18.822;2023-02-11T03:11:04;2.10;;;2.00;;
53927;SDS011;39837;47.630;18.822;2023-02-11T03:13:49;7.93;;;2.27;;
53927;SDS011;39837;47.630;18.822;2023-02-11T03:16:33;2.00;;;1.97;;
53927;SDS011;39837;47.630;18.822;2023-02-11T03:19:25;2.47;;;2.17;;
53927;SDS011;39837;47.630;18.822;2023-02-11T03:22:16;2.33;;;2.30;;
53927;SDS011;39837;47.630;18.822;2023-02-11T03:25:03;2.23;;;2.03;;
53927;SDS011;39837;47.630;18.822;2023-02-11T03:30:49;3.43;;;3.23;;
53927;SDS011;39837;47.630;18.822;2023-02-11T03:40:01;3.77;;;2.43;;
53927;SDS011;39837;47.630;18.822;2023-02-11T03:42:58;2.03;;;1.90;;
53927;SDS011;39837;47.630;18.822;2023-02-11T03:45:44;2.15;;;1.92;;
53927;SDS011;39837;47.630;18.822;2023-02-11T03:48:30;1.83;;;1.83;;
53927;SDS011;39837;47.630;18.822;2023-02-11T03:51:17;2.17;;;2.10;;
53927;SDS011;39837;47.630;18.822;2023-02-11T03:54:04;2.07;;;2.07;;
53927;SDS011;39837;47.630;18.822;2023-02-11T03:56:53;2.33;;;2.23;;
53927;SDS011;39837;47.630;18.822;2023-02-11T03:59:59;3.10;;;2.90;;
53927;SDS011;39837;47.630;18.822;2023-02-11T04:02:43;2.00;;;1.90;;
53927;SDS011;39837;47.630;18.822;2023-02-11T04:05:27;1.67;;;1.67;;
53927;SDS011;39837;47.630;18.822;2023-02-11T04:08:11;1.90;;;1.80;;
53927;SDS011;39837;47.630;18.822;2023-02-11T04:10:55;2.45;;;2.35;;
53927;SDS011;39837;47.630;18.822;2023-02-11T04:13:40;2.97;;;2.40;;
53927;SDS011;39837;47.630;18.822;2023-02-11T04:16:24;2.22;;;2.03;;
53927;SDS011;39837;47.630;18.822;2023-02-11T04:19:08;2.70;;;2.60;;
53927;SDS011;39837;47.630;18.822;2023-02-11T04:21:52;2.27;;;2.17;;
53927;SDS011;39837;47.630;18.822;2023-02-11T04:24:36;2.77;;;2.63;;
53927;SDS011;39837;47.630;18.822;2023-02-11T04:27:21;1.90;;;1.90;;
53927;SDS011;39837;47.630;18.822;2023-02-11T04:30:06;5.33;;;1.57;;
53927;SDS011;39837;47.630;18.822;2023-02-11T04:32:50;3.20;;;3.00;;
53927;SDS011;39837;47.630;18.822;2023-02-11T04:35:34;2.23;;;2.13;;
53927;SDS011;39837;47.630;18.822;2023-02-11T04:38:18;3.13;;;2.43;;
53927;SDS011;39837;47.630;18.822;2023-02-11T04:41:02;1.83;;;1.73;;
53927;SDS011;39837;47.630;18.822;2023-02-11T04:43:46;2.57;;;2.33;;
53927;SDS011;39837;47.630;18.822;2023-02-11T04:46:30;2.17;;;2.07;;
53927;SDS011;39837;47.630;18.822;2023-02-11T04:49:14;2.50;;;2.40;;
53927;SDS011;39837;47.630;18.822;2023-02-11T04:51:58;2.07;;;1.93;;
53927;SDS011;39837;47.630;18.822;2023-02-11T04:54:43;9.20;;;3.73;;
53927;SDS011;39837;47.630;18.822;2023-02-11T04:57:27;1.40;;;1.40;;
53927;SDS011;39837;47.630;18.822;2023-02-11T05:00:11;2.40;;;2.30;;
53927;SDS011;39837;47.630;18.822;2023-02-11T05:02:55;2.70;;;2.50;;
53927;SDS011;39837;47.630;18.822;2023-02-11T05:05:40;2.53;;;2.43;;
53927;SDS011;39837;47.630;18.822;2023-02-11T05:08:25;1.58;;;1.58;;
53927;SDS011;39837;47.630;18.822;2023-02-11T05:11:13;2.23;;;2.13;;
53927;SDS011;39837;47.630;18.822;2023-02-11T05:13:59;3.47;;;3.37;;
53927;SDS011;39837;47.630;18.822;2023-02-11T05:16:43;2.00;;;1.90;;
53927;SDS011;39837;47.630;18.822;2023-02-11T05:19:27;6.20;;;1.50;;
53927;SDS011;39837;47.630;18.822;2023-02-11T05:22:11;2.37;;;2.10;;
53927;SDS011;39837;47.630;18.822;2023-02-11T05:24:55;2.83;;;1.83;;
53927;SDS011;39837;47.630;18.822;2023-02-11T05:27:39;2.13;;;2.13;;
53927;SDS011;39837;47.630;18.822;2023-02-11T05:30:23;1.70;;;1.70;;
53927;SDS011;39837;47.630;18.822;2023-02-11T05:33:07;1.60;;;1.60;;
53927;SDS011;39837;47.630;18.822;2023-02-11T05:35:56;5.27;;;2.90;;
53927;SDS011;39837;47.630;18.822;2023-02-11T05:38:42;3.30;;;3.00;;
53927;SDS011;39837;47.630;18.822;2023-02-11T05:41:26;1.67;;;1.67;;
53927;SDS011;39837;47.630;18.822;2023-02-11T05:44:10;2.03;;;1.93;;
53927;SDS011;39837;47.630;18.822;2023-02-11T05:46:54;4.30;;;3.43;;
53927;SDS011;39837;47.630;18.822;2023-02-11T05:49:39;4.90;;;2.13;;
53927;SDS011;39837;47.630;18.822;2023-02-11T05:52:23;1.77;;;1.77;;
53927;SDS011;39837;47.630;18.822;2023-02-11T05:55:08;1.80;;;1.80;;
53927;SDS011;39837;47.630;18.822;2023-02-11T05:57:51;3.77;;;2.47;;
53927;SDS011;39837;47.630;18.822;2023-02-11T06:00:35;1.77;;;1.70;;
53927;SDS011;39837;47.630;18.822;2023-02-11T06:03:20;10.37;;;3.23;;
53927;SDS011;39837;47.630;18.822;2023-02-11T06:06:04;1.97;;;1.87;;
53927;SDS011;39837;47.630;18.822;2023-02-11T06:08:49;1.40;;;1.40;;
53927;SDS011;39837;47.630;18.822;2023-02-11T06:11:33;1.70;;;1.70;;
53927;SDS011;39837;47.630;18.822;2023-02-11T06:14:17;2.33;;;2.23;;
53927;SDS011;39837;47.630;18.822;2023-02-11T06:17:02;1.83;;;1.83;;
53927;SDS011;39837;47.630;18.822;2023-02-11T06:19:46;4.80;;;4.03;;
53927;SDS011;39837;47.630;18.822;2023-02-11T06:22:29;3.10;;;2.80;;
53927;SDS011;39837;47.630;18.822;2023-02-11T06:25:13;3.08;;;2.95;;
53927;SDS011;39837;47.630;18.822;2023-02-11T06:27:58;1.42;;;1.42;;
53927;SDS011;39837;47.630;18.822;2023-02-11T06:30:42;2.17;;;2.07;;
53927;SDS011;39837;47.630;18.822;2023-02-11T06:33:26;3.03;;;2.13;;
53927;SDS011;39837;47.630;18.822;2023-02-11T06:36:14;3.33;;;3.10;;
53927;SDS011;39837;47.630;18.822;2023-02-11T06:38:59;5.65;;;3.85;;
53927;SDS011;39837;47.630;18.822;2023-02-11T06:41:43;5.60;;;2.88;;
53927;SDS011;39837;47.630;18.822;2023-02-11T06:44:27;12.18;;;6.28;;
53927;SDS011;39837;47.630;18.822;2023-02-11T06:47:11;4.78;;;4.32;;
53927;SDS011;39837;47.630;18.822;2023-02-11T06:49:55;4.75;;;3.45;;
53927;SDS011;39837;47.630;18.822;2023-02-11T06:52:39;4.57;;;4.28;;
53927;SDS011;39837;47.630;18.822;2023-02-11T06:55:23;23.33;;;3.40;;
53927;SDS011;39837;47.630;18.822;2023-02-11T06:58:07;16.92;;;3.17;;
53927;SDS011;39837;47.630;18.822;2023-02-11T07:00:52;5.93;;;3.85;;
53927;SDS011;39837;47.630;18.822;2023-02-11T07:03:37;2.10;;;2.10;;
53927;SDS011;39837;47.630;18.822;2023-02-11T07:09:09;4.47;;;4.07;;
53927;SDS011;39837;47.630;18.822;2023-02-11T07:11:53;10.93;;;4.22;;
53927;SDS011;39837;47.630;18.822;2023-02-11T07:14:37;4.68;;;4.13;;
53927;SDS011;39837;47.630;18.822;2023-02-11T07:17:22;5.07;;;4.68;;
53927;SDS011;39837;47.630;18.822;2023-02-11T07:20:06;8.45;;;5.78;;
53927;SDS011;39837;47.630;18.822;2023-02-11T07:22:52;3.58;;;3.33;;
53927;SDS011;39837;47.630;18.822;2023-02-11T07:25:36;12.50;;;7.97;;
53927;SDS011;39837;47.630;18.822;2023-02-11T07:28:20;12.23;;;8.90;;
53927;SDS011;39837;47.630;18.822;2023-02-11T07:31:05;11.40;;;8.52;;
53927;SDS011;39837;47.630;18.822;2023-02-11T07:33:55;26.83;;;12.85;;
53927;SDS011;39837;47.630;18.822;2023-02-11T07:36:41;17.20;;;11.88;;
53927;SDS011;39837;47.630;18.822;2023-02-11T07:39:30;45.60;;;15.15;;
53927;SDS011;39837;47.630;18.822;2023-02-11T07:42:15;26.58;;;16.15;;
53927;SDS011;39837;47.630;18.822;2023-02-11T07:44:59;31.20;;;17.23;;
53927;SDS011;39837;47.630;18.822;2023-02-11T07:47:43;37.58;;;19.92;;
53927;SDS011;39837;47.630;18.822;2023-02-11T07:50:28;34.17;;;22.83;;
53927;SDS011;39837;47.630;18.822;2023-02-11T07:53:12;44.95;;;26.55;;
53927;SDS011;39837;47.630;18.822;2023-02-11T07:55:56;49.38;;;26.67;;
53927;SDS011;39837;47.630;18.822;2023-02-11T07:58:41;47.80;;;22.88;;
53927;SDS011;39837;47.630;18.822;2023-02-11T08:01:26;44.83;;;24.48;;
53927;SDS011;39837;47.630;18.822;2023-02-11T08:04:10;45.00;;;23.77;;
53927;SDS011;39837;47.630;18.822;2023-02-11T08:06:54;47.13;;;23.98;;
53927;SDS011;39837;47.630;18.822;2023-02-11T08:09:39;30.90;;;20.52;;
53927;SDS011;39837;47.630;18.822;2023-02-11T08:12:23;29.80;;;19.45;;
53927;SDS011;39837;47.630;18.822;2023-02-11T08:15:08;28.40;;;15.25;;
53927;SDS011;39837;47.630;18.822;2023-02-11T08:17:52;27.40;;;17.52;;
53927;SDS011;39837;47.630;18.822;2023-02-11T08:20:36;27.65;;;17.65;;
53927;SDS011;39837;47.630;18.822;2023-02-11T08:23:20;37.75;;;16.58;;
53927;SDS011;39837;47.630;18.822;2023-02-11T08:26:04;29.17;;;17.52;;
53927;SDS011;39837;47.630;18.822;2023-02-11T08:28:50;29.05;;;18.05;;
53927;SDS011;39837;47.630;18.822;2023-02-11T08:31:36;24.20;;;17.05;;
53927;SDS011;39837;47.630;18.822;2023-02-11T08:34:22;27.65;;;18.52;;
53927;SDS011;39837;47.630;18.822;2023-02-11T08:37:06;31.02;;;17.33;;
53927;SDS011;39837;47.630;18.822;2023-02-11T08:39:51;28.42;;;18.52;;
53927;SDS011;39837;47.630;18.822;2023-02-11T08:42:35;26.80;;;14.77;;
53927;SDS011;39837;47.630;18.822;2023-02-11T08:45:19;19.08;;;14.50;;
53927;SDS011;39837;47.630;18.822;2023-02-11T08:48:05;24.88;;;16.30;;
53927;SDS011;39837;47.630;18.822;2023-02-11T08:50:49;28.08;;;16.10;;
53927;SDS011;39837;47.630;18.822;2023-02-11T08:53:34;30.02;;;19.02;;
53927;SDS011;39837;47.630;18.822;2023-02-11T08:56:19;33.70;;;17.60;;
53927;SDS011;39837;47.630;18.822;2023-02-11T08:59:04;36.88;;;17.05;;
53927;SDS011;39837;47.630;18.822;2023-02-11T09:01:48;35.88;;;18.15;;
53927;SDS011;39837;47.630;18.822;2023-02-11T09:04:32;44.10;;;21.73;;
53927;SDS011;39837;47.630;18.822;2023-02-11T09:07:16;38.35;;;17.48;;
53927;SDS011;39837;47.630;18.822;2023-02-11T09:10:00;28.60;;;14.02;;
53927;SDS011;39837;47.630;18.822;2023-02-11T09:12:44;27.23;;;15.63;;
53927;SDS011;39837;47.630;18.822;2023-02-11T09:15:28;23.05;;;13.98;;
53927;SDS011;39837;47.630;18.822;2023-02-11T09:18:13;22.35;;;12.20;;
53927;SDS011;39837;47.630;18.822;2023-02-11T09:21:04;22.98;;;11.38;;
53927;SDS011;39837;47.630;18.822;2023-02-11T09:23:54;11.43;;;8.40;;
53927;SDS011;39837;47.630;18.822;2023-02-11T09:26:39;16.58;;;10.93;;
53927;SDS011;39837;47.630;18.822;2023-02-11T09:29:25;20.38;;;9.50;;
53927;SDS011;39837;47.630;18.822;2023-02-11T09:32:11;7.75;;;6.88;;
53927;SDS011;39837;47.630;18.822;2023-02-11T09:37:39;8.07;;;6.95;;
53927;SDS011;39837;47.630;18.822;2023-02-11T09:40:23;17.67;;;9.30;;
53927;SDS011;39837;47.630;18.822;2023-02-11T09:43:11;10.90;;;9.77;;
53927;SDS011;39837;47.630;18.822;2023-02-11T09:46:00;19.67;;;8.90;;
53927;SDS011;39837;47.630;18.822;2023-02-11T09:48:45;7.93;;;7.05;;
53927;SDS011;39837;47.630;18.822;2023-02-11T09:51:41;11.30;;;7.95;;
53927;SDS011;39837;47.630;18.822;2023-02-11T09:57:19;12.23;;;9.63;;
53927;SDS011;39837;47.630;18.822;2023-02-11T10:00:18;11.98;;;8.55;;
53927;SDS011;39837;47.630;18.822;2023-02-11T10:03:10;16.00;;;9.48;;
53927;SDS011;39837;47.630;18.822;2023-02-11T10:06:09;13.15;;;9.73;;
53927;SDS011;39837;47.630;18.822;2023-02-11T10:09:10;16.38;;;10.00;;
53927;SDS011;39837;47.630;18.822;2023-02-11T10:12:19;19.38;;;10.52;;
53927;SDS011;39837;47.630;18.822;2023-02-11T10:15:41;11.48;;;7.78;;
53927;SDS011;39837;47.630;18.822;2023-02-11T10:18:41;22.40;;;10.80;;
53927;SDS011;39837;47.630;18.822;2023-02-11T10:24:19;11.80;;;9.60;;
53927;SDS011;39837;47.630;18.822;2023-02-11T10:27:07;9.23;;;7.25;;
53927;SDS011;39837;47.630;18.822;2023-02-11T10:30:05;11.70;;;8.35;;
53927;SDS011;39837;47.630;18.822;2023-02-11T10:35:54;11.63;;;7.93;;
53927;SDS011;39837;47.630;18.822;2023-02-11T10:38:38;7.63;;;6.47;;
53927;SDS011;39837;47.630;18.822;2023-02-11T10:41:25;14.05;;;8.13;;
53927;SDS011;39837;47.630;18.822;2023-02-11T10:44:18;15.15;;;9.25;;
53927;SDS011;39837;47.630;18.822;2023-02-11T10:50:30;10.95;;;9.45;;
53927;SDS011;39837;47.630;18.822;2023-02-11T10:53:19;11.05;;;8.73;;
53927;SDS011;39837;47.630;18.822;2023-02-11T10:56:03;20.90;;;9.25;;
53927;SDS011;39837;47.630;18.822;2023-02-11T10:58:53;13.88;;;8.27;;
53927;SDS011;39837;47.630;18.822;2023-02-11T11:01:39;12.57;;;8.80;;
53927;SDS011;39837;47.630;18.822;2023-02-11T11:04:33;7.70;;;6.18;;
53927;SDS011;39837;47.630;18.822;2023-02-11T11:07:26;8.23;;;6.90;;
53927;SDS011;39837;47.630;18.822;2023-02-11T11:10:25;16.45;;;8.05;;
53927;SDS011;39837;47.630;18.822;2023-02-11T11:13:33;9.95;;;6.80;;
53927;SDS011;39837;47.630;18.822;2023-02-11T11:16:21;12.80;;;8.35;;
53927;SDS011;39837;47.630;18.822;2023-02-11T11:21:51;13.13;;;7.50;;
53927;SDS011;39837;47.630;18.822;2023-02-11T11:24:40;12.60;;;9.27;;
53927;SDS011;39837;47.630;18.822;2023-02-11T11:27:27;13.45;;;8.02;;
53927;SDS011;39837;47.630;18.822;2023-02-11T11:30:14;14.85;;;8.48;;
53927;SDS011;39837;47.630;18.822;2023-02-11T11:32:59;12.95;;;8.30;;
53927;SDS011;39837;47.630;18.822;2023-02-11T11:35:44;9.68;;;7.75;;
53927;SDS011;39837;47.630;18.822;2023-02-11T11:38:43;8.10;;;6.85;;
53927;SDS011;39837;47.630;18.822;2023-02-11T11:41:39;6.13;;;5.47;;
53927;SDS011;39837;47.630;18.822;2023-02-11T11:44:37;5.57;;;4.85;;
53927;SDS011;39837;47.630;18.822;2023-02-11T11:47:32;4.40;;;4.07;;
53927;SDS011;39837;47.630;18.822;2023-02-11T11:58:44;8.25;;;6.38;;
53927;SDS011;39837;47.630;18.822;2023-02-11T12:01:30;7.53;;;5.32;;
53927;SDS011;39837;47.630;18.822;2023-02-11T12:07:32;11.48;;;6.85;;
53927;SDS011;39837;47.630;18.822;2023-02-11T12:10:22;10.35;;;7.78;;
53927;SDS011;39837;47.630;18.822;2023-02-11T12:13:16;6.45;;;5.85;;
53927;SDS011;39837;47.630;18.822;2023-02-11T12:19:32;15.43;;;7.75;;
53927;SDS011;39837;47.630;18.822;2023-02-11T12:22:28;11.98;;;9.32;;
53927;SDS011;39837;47.630;18.822;2023-02-11T12:25:31;8.27;;;6.78;;
53927;SDS011;39837;47.630;18.822;2023-02-11T12:28:37;7.45;;;5.60;;
53927;SDS011;39837;47.630;18.822;2023-02-11T12:37:54;9.70;;;6.05;;
53927;SDS011;39837;47.630;18.822;2023-02-11T12:59:57;7.45;;;6.47;;
53927;SDS011;39837;47.630;18.822;2023-02-11T13:05:51;5.53;;;4.95;;
53927;SDS011;39837;47.630;18.822;2023-02-11T13:08:44;11.98;;;4.80;;
53927;SDS011;39837;47.630;18.822;2023-02-11T13:11:34;6.57;;;4.72;;
53927;SDS011;39837;47.630;18.822;2023-02-11T13:14:30;6.28;;;5.40;;
53927;SDS011;39837;47.630;18.822;2023-02-11T13:17:22;5.40;;;4.95;;
53927;SDS011;39837;47.630;18.822;2023-02-11T13:20:14;6.30;;;5.30;;
53927;SDS011;39837;47.630;18.822;2023-02-11T13:23:06;5.25;;;4.18;;
53927;SDS011;39837;47.630;18.822;2023-02-11T13:25:57;10.00;;;6.43;;
53927;SDS011;39837;47.630;18.822;2023-02-11T13:32:06;12.52;;;6.30;;
53927;SDS011;39837;47.630;18.822;2023-02-11T13:34:54;14.95;;;7.00;;
53927;SDS011;39837;47.630;18.822;2023-02-11T13:37:40;8.68;;;6.47;;
53927;SDS011;39837;47.630;18.822;2023-02-11T13:40:31;8.82;;;6.72;;
53927;SDS011;39837;47.630;18.822;2023-02-11T13:43:19;14.80;;;6.97;;
53927;SDS011;39837;47.630;18.822;2023-02-11T13:46:06;5.47;;;4.97;;
53927;SDS011;39837;47.630;18.822;2023-02-11T13:48:53;9.38;;;6.78;;
53927;SDS011;39837;47.630;18.822;2023-02-11T13:51:38;14.90;;;7.30;;
53927;SDS011;39837;47.630;18.822;2023-02-11T13:54:29;8.07;;;6.10;;
53927;SDS011;39837;47.630;18.822;2023-02-11T14:06:23;8.18;;;6.30;;
53927;SDS011;39837;47.630;18.822;2023-02-11T14:09:35;10.48;;;7.18;;
53927;SDS011;39837;47.630;18.822;2023-02-11T14:17:51;11.05;;;7.05;;
53927;SDS011;39837;47.630;18.822;2023-02-11T14:20:36;12.15;;;6.55;;
53927;SDS011;39837;47.630;18.822;2023-02-11T14:23:24;24.15;;;7.68;;
53927;SDS011;39837;47.630;18.822;2023-02-11T14:26:57;7.88;;;6.72;;
53927;SDS011;39837;47.630;18.822;2023-02-11T14:29:44;11.98;;;7.32;;
53927;SDS011;39837;47.630;18.822;2023-02-11T14:32:51;20.50;;;11.13;;
53927;SDS011;39837;47.630;18.822;2023-02-11T14:39:17;12.70;;;9.38;;
53927;SDS011;39837;47.630;18.822;2023-02-11T14:42:13;23.45;;;10.10;;
53927;SDS011;39837;47.630;18.822;2023-02-11T14:45:09;16.00;;;8.00;;
53927;SDS011;39837;47.630;18.822;2023-02-11T14:47:59;15.05;;;8.68;;
53927;SDS011;39837;47.630;18.822;2023-02-11T14:50:48;15.80;;;8.98;;
53927;SDS011;39837;47.630;18.822;2023-02-11T14:53:34;18.55;;;9.98;;
53927;SDS011;39837;47.630;18.822;2023-02-11T14:56:24;16.33;;;8.45;;
53927;SDS011;39837;47.630;18.822;2023-02-11T14:59:17;14.45;;;7.60;;
53927;SDS011;39837;47.630;18.822;2023-02-11T15:02:14;10.02;;;6.78;;
53927;SDS011;39837;47.630;18.822;2023-02-11T15:05:16;16.83;;;8.63;;
53927;SDS011;39837;47.630;18.822;2023-02-11T15:08:11;12.40;;;6.72;;
53927;SDS011;39837;47.630;18.822;2023-02-11T15:10:58;12.85;;;7.13;;
53927;SDS011;39837;47.630;18.822;2023-02-11T15:13:44;14.23;;;8.32;;
53927;SDS011;39837;47.630;18.822;2023-02-11T15:16:32;11.63;;;7.38;;
53927;SDS011;39837;47.630;18.822;2023-02-11T15:22:07;12.27;;;7.28;;
53927;SDS011;39837;47.630;18.822;2023-02-11T15:25:08;9.70;;;6.55;;
53927;SDS011;39837;47.630;18.822;2023-02-11T15:27:55;10.57;;;7.35;;
53927;SDS011;39837;47.630;18.822;2023-02-11T15:30:40;9.60;;;6.60;;
53927;SDS011;39837;47.630;18.822;2023-02-11T15:33:26;11.90;;;7.25;;
53927;SDS011;39837;47.630;18.822;2023-02-11T15:36:13;11.82;;;8.20;;
53927;SDS011;39837;47.630;18.822;2023-02-11T15:39:15;12.85;;;8.65;;
53927;SDS011;39837;47.630;18.822;2023-02-11T15:42:32;9.68;;;7.78;;
53927;SDS011;39837;47.630;18.822;2023-02-11T15:45:21;27.70;;;10.70;;
53927;SDS011;39837;47.630;18.822;2023-02-11T15:48:11;16.52;;;7.97;;
53927;SDS011;39837;47.630;18.822;2023-02-11T15:54:22;14.77;;;7.85;;
53927;SDS011;39837;47.630;18.822;2023-02-11T15:57:10;22.95;;;9.52;;
53927;SDS011;39837;47.630;18.822;2023-02-11T15:59:55;11.75;;;7.22;;
53927;SDS011;39837;47.630;18.822;2023-02-11T16:02:43;13.60;;;6.20;;
53927;SDS011;39837;47.630;18.822;2023-02-11T16:08:26;19.98;;;8.93;;
53927;SDS011;39837;47.630;18.822;2023-02-11T16:11:23;13.00;;;8.03;;
53927;SDS011;39837;47.630;18.822;2023-02-11T16:17:20;13.00;;;8.30;;
53927;SDS011;39837;47.630;18.822;2023-02-11T16:20:16;15.25;;;7.40;;
53927;SDS011;39837;47.630;18.822;2023-02-11T16:23:01;9.13;;;6.45;;
53927;SDS011;39837;47.630;18.822;2023-02-11T16:25:55;9.27;;;7.78;;
53927;SDS011;39837;47.630;18.822;2023-02-11T16:28:48;10.52;;;7.47;;
53927;SDS011;39837;47.630;18.822;2023-02-11T16:31:33;15.02;;;9.20;;
53927;SDS011;39837;47.630;18.822;2023-02-11T16:34:19;18.58;;;8.15;;
53927;SDS011;39837;47.630;18.822;2023-02-11T16:37:05;11.05;;;7.18;;
53927;SDS011;39837;47.630;18.822;2023-02-11T16:39:53;18.17;;;7.75;;
53927;SDS011;39837;47.630;18.822;2023-02-11T16:42:42;11.23;;;7.22;;
53927;SDS011;39837;47.630;18.822;2023-02-11T16:45:27;13.68;;;8.65;;
53927;SDS011;39837;47.630;18.822;2023-02-11T16:48:13;14.68;;;10.40;;
53927;SDS011;39837;47.630;18.822;2023-02-11T16:51:01;20.05;;;12.25;;
53927;SDS011;39837;47.630;18.822;2023-02-11T16:53:46;20.17;;;12.18;;
53927;SDS011;39837;47.630;18.822;2023-02-11T16:56:32;11.45;;;7.45;;
53927;SDS011;39837;47.630;18.822;2023-02-11T16:59:17;10.45;;;7.50;;
53927;SDS011;39837;47.630;18.822;2023-02-11T17:02:01;12.13;;;9.38;;
53927;SDS011;39837;47.630;18.822;2023-02-11T17:04:46;8.70;;;6.03;;
53927;SDS011;39837;47.630;18.822;2023-02-11T17:07:31;11.25;;;8.15;;
53927;SDS011;39837;47.630;18.822;2023-02-11T17:10:17;11.68;;;6.85;;
53927;SDS011;39837;47.630;18.822;2023-02-11T17:13:07;17.40;;;10.80;;
53927;SDS011;39837;47.630;18.822;2023-02-11T17:15:53;17.10;;;10.35;;
53927;SDS011;39837;47.630;18.822;2023-02-11T17:18:38;16.50;;;11.07;;
53927;SDS011;39837;47.630;18.822;2023-02-11T17:21:22;20.15;;;7.75;;
53927;SDS011;39837;47.630;18.822;2023-02-11T17:24:08;10.88;;;7.75;;
53927;SDS011;39837;47.630;18.822;2023-02-11T17:26:53;18.65;;;8.27;;
53927;SDS011;39837;47.630;18.822;2023-02-11T17:29:38;11.43;;;7.45;;
53927;SDS011;39837;47.630;18.822;2023-02-11T17:32:22;15.63;;;8.05;;
53927;SDS011;39837;47.630;18.822;2023-02-11T17:35:07;13.32;;;6.00;;
53927;SDS011;39837;47.630;18.822;2023-02-11T17:37:52;8.63;;;6.88;;
53927;SDS011;39837;47.630;18.822;2023-02-11T17:40:36;14.75;;;7.47;;
53927;SDS011;39837;47.630;18.822;2023-02-11T17:43:21;11.65;;;6.13;;
53927;SDS011;39837;47.630;18.822;2023-02-11T17:46:06;16.63;;;6.57;;
53927;SDS011;39837;47.630;18.822;2023-02-11T17:48:50;12.48;;;8.55;;
53927;SDS011;39837;47.630;18.822;2023-02-11T17:51:36;11.77;;;7.20;;
53927;SDS011;39837;47.630;18.822;2023-02-11T17:54:21;9.93;;;6.18;;
53927;SDS011;39837;47.630;18.822;2023-02-11T17:57:05;11.75;;;7.10;;
53927;SDS011;39837;47.630;18.822;2023-02-11T17:59:50;9.38;;;7.03;;
53927;SDS011;39837;47.630;18.822;2023-02-11T18:02:34;10.20;;;6.72;;
53927;SDS011;39837;47.630;18.822;2023-02-11T18:05:18;14.43;;;8.02;;
53927;SDS011;39837;47.630;18.822;2023-02-11T18:08:03;14.43;;;8.38;;
53927;SDS011;39837;47.630;18.822;2023-02-11T18:10:48;14.10;;;8.38;;
53927;SDS011;39837;47.630;18.822;2023-02-11T18:13:33;12.23;;;7.13;;
53927;SDS011;39837;47.630;18.822;2023-02-11T18:16:17;15.77;;;9.80;;
53927;SDS011;39837;47.630;18.822;2023-02-11T18:19:02;11.98;;;8.38;;
53927;SDS011;39837;47.630;18.822;2023-02-11T18:21:47;25.55;;;10.38;;
53927;SDS011;39837;47.630;18.822;2023-02-11T18:24:33;22.38;;;9.25;;
53927;SDS011;39837;47.630;18.822;2023-02-11T18:27:17;11.90;;;8.32;;
53927;SDS011;39837;47.630;18.822;2023-02-11T18:30:03;17.63;;;10.43;;
53927;SDS011;39837;47.630;18.822;2023-02-11T18:32:59;19.13;;;10.88;;
53927;SDS011;39837;47.630;18.822;2023-02-11T18:35:44;37.72;;;12.02;;
53927;SDS011;39837;47.630;18.822;2023-02-11T18:38:32;22.10;;;13.38;;